Time;durP1;ratioP1;P1;durP2;ratioP2;P2;SDS_P1;SDS_P2;PMS_P1;PMS_P2;Temp;Humidity;BMP_temperature;BMP_pressure;BME280_temperature;BME280_humidity;BME280_pressure;Samples;Min_cycle;Max_cycle;Signal;HPM_P1;HPM_P2
2023/01/17 03:03:03;;;;;;;5.75;5.40;;;-1.10;99.90;;;;;;6119889;23;20386;-79
2023/01/17 03:05:43;;;;;;;6.15;5.75;;;-1.10;99.90;;;;;;6066047;23;20373;-78
2023/01/17 03:08:11;;;;;;;6.53;6.13;;;-1.30;99.90;;;;;;6066021;23;20441;-78
2023/01/17 03:10:40;;;;;;;6.82;6.43;;;-1.50;99.90;;;;;;6112995;23;20455;-78
2023/01/17 03:13:07;;;;;;;9.35;6.93;;;-1.40;99.90;;;;;;6125351;23;20433;-78
2023/01/17 03:15:34;;;;;;;6.93;6.40;;;-1.40;99.90;;;;;;6125660;23;20374;-78
2023/01/17 03:18:11;;;;;;;6.72;6.15;;;-1.30;99.90;;;;;;6125411;23;20382;-78
2023/01/17 03:20:38;;;;;;;12.73;6.53;;;-1.20;99.90;;;;;;6125895;23;20848;-78
2023/01/17 03:23:05;;;;;;;6.35;5.70;;;-1.10;99.90;;;;;;6151562;23;20464;-78
2023/01/17 03:25:32;;;;;;;6.55;6.00;;;-1.10;99.90;;;;;;6150888;23;20374;-78
2023/01/17 03:27:58;;;;;;;7.43;6.93;;;-1.00;99.90;;;;;;6125911;23;20876;-78
2023/01/17 03:30:25;;;;;;;7.70;7.20;;;-0.90;99.90;;;;;;6125238;23;20437;-78
2023/01/17 03:32:52;;;;;;;7.30;6.80;;;-0.90;99.90;;;;;;6125766;23;20386;-78
2023/01/17 03:35:19;;;;;;;7.97;7.47;;;-0.80;99.90;;;;;;6150656;23;20382;-78
2023/01/17 03:37:46;;;;;;;7.53;6.93;;;-0.70;99.90;;;;;;6125073;23;20458;-78
2023/01/17 03:40:13;;;;;;;9.63;8.83;;;-0.60;99.90;;;;;;6125590;23;20453;-78
2023/01/17 03:42:40;;;;;;;9.90;9.20;;;-0.40;99.90;;;;;;6125144;23;20443;-78
2023/01/17 03:45:07;;;;;;;10.52;9.73;;;-0.20;99.90;;;;;;6151720;23;20398;-76
2023/01/17 03:47:35;;;;;;;10.38;9.48;;;0.00;99.90;;;;;;6150609;23;20672;-76
2023/01/17 03:50:02;;;;;;;9.98;9.10;;;0.10;99.90;;;;;;6125700;23;20746;-77
2023/01/17 03:52:29;;;;;;;10.80;9.90;;;0.20;99.90;;;;;;6124767;23;20741;-75
2023/01/17 03:54:56;;;;;;;10.23;9.43;;;0.30;99.90;;;;;;6125578;23;20369;-76
2023/01/17 03:57:23;;;;;;;9.20;8.50;;;0.40;99.90;;;;;;6125151;23;20398;-75
2023/01/17 03:59:50;;;;;;;9.82;9.02;;;0.50;99.90;;;;;;6125565;23;20737;-76
2023/01/17 04:02:17;;;;;;;9.43;8.63;;;0.50;99.90;;;;;;6124452;23;20409;-76
2023/01/17 04:04:44;;;;;;;9.23;8.52;;;0.60;99.90;;;;;;6124887;23;20378;-77
2023/01/17 04:07:11;;;;;;;7.85;7.25;;;0.60;99.90;;;;;;6124433;23;20388;-77
2023/01/17 04:09:37;;;;;;;7.85;7.25;;;0.50;99.90;;;;;;6124768;23;20758;-76
2023/01/17 04:12:04;;;;;;;7.53;7.03;;;0.40;99.90;;;;;;6125294;23;20449;-76
2023/01/17 04:14:31;;;;;;;7.47;6.97;;;0.40;99.90;;;;;;6125208;23;20405;-76
2023/01/17 04:16:58;;;;;;;7.25;6.75;;;0.30;99.90;;;;;;6127392;23;20378;-76
2023/01/17 04:19:26;;;;;;;8.32;7.68;;;0.30;99.90;;;;;;6126835;23;20757;-76
2023/01/17 04:21:52;;;;;;;7.43;6.93;;;0.20;99.90;;;;;;6127845;23;20381;-76
2023/01/17 04:24:19;;;;;;;7.68;7.18;;;0.20;99.90;;;;;;6125776;23;20402;-77
2023/01/17 04:26:46;;;;;;;8.30;7.70;;;0.10;99.90;;;;;;6127759;23;20404;-76
2023/01/17 04:29:13;;;;;;;7.78;7.25;;;0.00;99.90;;;;;;6127272;23;20394;-77
2023/01/17 04:31:40;;;;;;;7.82;7.22;;;0.00;99.90;;;;;;6127205;23;20362;-75
2023/01/17 04:34:07;;;;;;;7.93;7.38;;;-0.10;99.90;;;;;;6127439;23;20374;-75
2023/01/17 04:36:34;;;;;;;6.70;6.30;;;-0.10;99.90;;;;;;6126477;23;20374;-76
2023/01/17 04:39:00;;;;;;;7.13;6.63;;;-0.10;99.90;;;;;;6127021;23;20389;-75
2023/01/17 04:41:29;;;;;;;7.32;6.82;;;-0.10;99.90;;;;;;6126392;23;21610;-75
2023/01/17 04:43:56;;;;;;;6.63;6.22;;;-0.10;99.90;;;;;;6127107;23;20425;-76
2023/01/17 04:46:23;;;;;;;7.30;6.80;;;-0.10;99.90;;;;;;6126748;23;20386;-77
2023/01/17 04:48:50;;;;;;;7.82;7.22;;;-0.20;99.90;;;;;;6127397;23;20374;-75
2023/01/17 04:51:17;;;;;;;6.82;6.40;;;-0.30;99.90;;;;;;6127723;23;20390;-75
2023/01/17 04:53:44;;;;;;;7.47;6.97;;;-0.20;99.90;;;;;;6126481;23;20672;-77
2023/01/17 04:56:11;;;;;;;6.60;6.20;;;-0.20;99.90;;;;;;6127600;23;20702;-76
2023/01/17 04:58:38;;;;;;;7.03;6.53;;;-0.10;99.90;;;;;;6152079;23;20382;-75
2023/01/17 05:01:06;;;;;;;7.20;6.70;;;0.00;99.90;;;;;;6127086;23;20730;-75
2023/01/17 05:03:34;;;;;;;8.20;7.60;;;0.00;99.90;;;;;;6125512;23;20766;-76
2023/01/17 05:06:01;;;;;;;7.53;7.03;;;0.10;99.90;;;;;;6152891;23;20892;-75
2023/01/17 05:08:28;;;;;;;7.70;7.10;;;0.10;99.90;;;;;;6151611;23;20452;-76
2023/01/17 05:10:55;;;;;;;7.53;7.03;;;0.20;99.90;;;;;;6127132;23;20428;-75
2023/01/17 05:13:22;;;;;;;7.70;7.10;;;0.20;99.90;;;;;;6126418;23;20374;-76
2023/01/17 05:15:49;;;;;;;7.70;7.20;;;0.30;99.90;;;;;;6127132;23;20397;-76
2023/01/17 05:18:17;;;;;;;7.80;7.30;;;0.40;99.90;;;;;;6126826;23;20377;-75
2023/01/17 05:20:44;;;;;;;8.10;7.50;;;0.50;99.90;;;;;;6126231;23;20424;-78
2023/01/17 05:23:11;;;;;;;8.50;7.90;;;0.50;99.90;;;;;;6126899;23;20374;-77
2023/01/17 05:25:43;;;;;;;8.93;8.27;;;0.60;99.90;;;;;;6150852;23;20413;-75
2023/01/17 05:28:11;;;;;;;8.25;7.65;;;0.60;99.90;;;;;;6126956;23;20429;-76
2023/01/17 05:30:38;;;;;;;8.30;7.70;;;0.60;99.90;;;;;;6126049;23;20431;-76
2023/01/17 05:33:06;;;;;;;7.75;7.25;;;0.70;99.90;;;;;;6125838;23;20429;-76
2023/01/17 05:35:33;;;;;;;8.05;7.45;;;0.70;99.90;;;;;;6151589;23;20418;-75
2023/01/17 05:38:01;;;;;;;7.90;7.30;;;0.80;99.90;;;;;;6151930;23;20437;-76
2023/01/17 05:40:30;;;;;;;8.40;7.80;;;0.80;99.90;;;;;;6125894;23;20471;-78
2023/01/17 05:42:58;;;;;;;7.72;7.22;;;0.80;99.90;;;;;;6126133;23;20880;-76
2023/01/17 05:45:28;;;;;;;7.82;7.30;;;0.80;99.90;;;;;;6151967;23;20378;-76
2023/01/17 05:47:56;;;;;;;8.07;7.47;;;0.80;99.90;;;;;;6125510;23;20462;-77
2023/01/17 05:50:30;;;;;;;7.57;6.97;;;0.80;99.90;;;;;;6125775;23;20466;-75
2023/01/17 05:53:04;;;;;;;6.85;6.45;;;0.80;99.90;;;;;;6125267;23;20931;-76
2023/01/17 05:55:31;;;;;;;7.57;7.07;;;0.90;99.90;;;;;;6126345;23;20434;-75
2023/01/17 05:57:58;;;;;;;7.45;6.95;;;0.90;99.90;;;;;;6125525;23;20424;-76
2023/01/17 06:00:26;;;;;;;7.40;6.90;;;0.90;99.90;;;;;;6112805;23;20381;-76
2023/01/17 06:02:54;;;;;;;7.60;7.00;;;0.90;99.90;;;;;;6123217;23;20382;-79
2023/01/17 06:05:23;;;;;;;6.75;6.25;;;0.90;99.90;;;;;;6126749;23;20888;-75
2023/01/17 06:07:50;;;;;;;7.55;7.05;;;0.90;99.90;;;;;;6125624;23;20410;-75
2023/01/17 06:10:18;;;;;;;8.63;7.95;;;0.90;99.90;;;;;;6126530;23;20378;-76
2023/01/17 06:12:46;;;;;;;7.00;6.55;;;0.90;99.90;;;;;;6125418;23;20466;-76
2023/01/17 06:15:15;;;;;;;20.95;19.15;;;0.90;99.90;;;;;;6126979;23;20378;-77
2023/01/17 06:17:42;;;;;;;13.25;12.15;;;0.90;99.90;;;;;;6125492;23;20742;-76
2023/01/17 06:20:11;;;;;;;11.35;10.45;;;0.90;99.90;;;;;;6126455;23;20370;-76
2023/01/17 06:22:37;;;;;;;10.45;9.57;;;0.90;99.90;;;;;;6124611;23;20394;-77
2023/01/17 06:25:05;;;;;;;8.65;8.05;;;0.90;99.90;;;;;;6151927;23;20370;-75
2023/01/17 06:27:32;;;;;;;8.23;7.63;;;0.90;99.90;;;;;;6126572;23;21157;-76
2023/01/17 06:29:59;;;;;;;8.40;7.70;;;0.90;99.90;;;;;;6124987;23;20865;-76
2023/01/17 06:32:26;;;;;;;8.23;7.63;;;0.90;99.90;;;;;;6125929;23;20461;-75
2023/01/17 06:34:53;;;;;;;7.60;7.05;;;0.90;99.90;;;;;;6150606;23;20373;-76
2023/01/17 06:37:20;;;;;;;10.18;9.38;;;0.90;99.90;;;;;;6125964;23;20683;-75
2023/01/17 06:39:47;;;;;;;9.40;8.70;;;0.90;99.90;;;;;;6124978;23;20429;-75
2023/01/17 06:42:14;;;;;;;8.73;8.02;;;0.90;99.90;;;;;;6126436;23;20441;-76
2023/01/17 06:44:41;;;;;;;9.18;8.48;;;0.90;99.90;;;;;;6123763;23;20374;-75
2023/01/17 06:47:08;;;;;;;9.02;8.32;;;0.90;99.90;;;;;;6125464;23;20374;-77
2023/01/17 06:49:35;;;;;;;8.38;7.78;;;1.00;99.90;;;;;;6151315;23;20405;-76
2023/01/17 06:52:02;;;;;;;10.55;9.75;;;1.00;99.90;;;;;;6125082;23;20370;-75
2023/01/17 06:54:29;;;;;;;7.50;6.90;;;1.00;99.90;;;;;;6126234;23;20489;-75
2023/01/17 06:56:56;;;;;;;7.07;6.57;;;1.00;99.90;;;;;;6124649;23;20377;-76
2023/01/17 06:59:23;;;;;;;7.13;6.63;;;0.90;99.90;;;;;;6126317;23;20444;-76
2023/01/17 07:01:50;;;;;;;8.68;8.05;;;0.90;99.90;;;;;;6149679;23;20409;-75
2023/01/17 07:04:19;;;;;;;8.00;7.40;;;0.80;99.90;;;;;;6151577;23;20412;-76
2023/01/17 07:06:45;;;;;;;8.23;7.63;;;0.80;99.90;;;;;;6124031;23;20459;-75
2023/01/17 07:09:12;;;;;;;7.90;7.35;;;0.80;99.90;;;;;;6126079;23;20377;-77
2023/01/17 07:11:39;;;;;;;7.68;7.18;;;0.90;99.90;;;;;;6125004;23;20461;-77
2023/01/17 07:14:11;;;;;;;6.72;6.32;;;0.90;99.90;;;;;;6125383;23;20401;-76
2023/01/17 07:16:39;;;;;;;6.88;6.47;;;0.90;99.90;;;;;;6151720;23;20518;-76
2023/01/17 07:19:06;;;;;;;7.63;7.03;;;0.90;99.90;;;;;;6125215;23;20429;-75
2023/01/17 07:21:33;;;;;;;7.43;6.93;;;1.00;99.90;;;;;;6126356;23;20374;-75
2023/01/17 07:24:00;;;;;;;7.45;6.90;;;1.00;99.90;;;;;;6147891;23;20381;-75
2023/01/17 07:26:26;;;;;;;7.25;6.75;;;1.00;99.90;;;;;;6125247;23;20400;-75
2023/01/17 07:28:53;;;;;;;7.80;7.28;;;1.00;99.90;;;;;;6123898;23;20400;-76
2023/01/17 07:31:20;;;;;;;8.10;7.50;;;1.00;99.90;;;;;;6125468;23;20893;-75
2023/01/17 07:33:47;;;;;;;7.57;7.07;;;1.10;99.90;;;;;;6123995;23;20385;-76
2023/01/17 07:36:14;;;;;;;7.50;7.00;;;1.20;99.90;;;;;;6126195;23;20698;-75
2023/01/17 07:38:43;;;;;;;7.18;6.57;;;1.20;99.90;;;;;;6125425;23;20385;-75
2023/01/17 07:41:10;;;;;;;7.60;7.10;;;1.20;99.90;;;;;;6151106;23;20799;-75
2023/01/17 07:43:37;;;;;;;8.07;7.47;;;1.30;99.90;;;;;;6151371;23;20490;-75
2023/01/17 07:46:06;;;;;;;7.10;6.70;;;1.30;99.90;;;;;;6124985;23;20376;-75
2023/01/17 07:48:34;;;;;;;6.90;6.40;;;1.30;99.90;;;;;;6125261;23;20378;-77
2023/01/17 07:51:01;;;;;;;7.27;6.77;;;1.30;99.90;;;;;;6149857;23;20424;-76
2023/01/17 07:53:29;;;;;;;6.97;6.50;;;1.40;99.90;;;;;;6125471;23;20808;-75
2023/01/17 07:56:03;;;;;;;7.32;6.82;;;1.40;99.90;;;;;;6124688;23;20381;-76
2023/01/17 07:58:33;;;;;;;7.07;6.60;;;1.40;99.90;;;;;;6125584;23;20939;-76
2023/01/17 08:01:11;;;;;;;7.20;6.70;;;1.40;99.90;;;;;;6124822;23;20377;-76
2023/01/17 08:03:39;;;;;;;7.57;7.07;;;1.50;99.90;;;;;;6125174;23;20496;-76
2023/01/17 08:06:22;;;;;;;7.40;6.90;;;1.60;99.90;;;;;;6123935;23;20690;-76
2023/01/17 08:08:49;;;;;;;7.25;6.75;;;1.60;99.90;;;;;;6125087;23;20441;-76
2023/01/17 08:11:16;;;;;;;7.80;7.20;;;1.60;99.90;;;;;;6151562;23;20424;-75
2023/01/17 08:13:43;;;;;;;6.68;6.28;;;1.70;99.90;;;;;;6125309;23;20390;-77
2023/01/17 08:16:10;;;;;;;6.73;6.23;;;1.70;99.90;;;;;;6124520;23;20491;-75
2023/01/17 08:18:37;;;;;;;6.80;6.30;;;1.80;99.90;;;;;;6125481;23;20390;-75
2023/01/17 08:21:14;;;;;;;7.43;6.85;;;1.80;99.90;;;;;;6124010;23;20385;-79
2023/01/17 08:23:41;;;;;;;7.45;6.95;;;1.90;99.90;;;;;;6125124;23;20374;-76
2023/01/17 08:26:08;;;;;;;6.78;6.38;;;2.00;99.90;;;;;;6124692;23;20732;-76
2023/01/17 08:28:35;;;;;;;6.40;6.00;;;2.00;99.90;;;;;;6125928;23;20407;-76
2023/01/17 08:31:07;;;;;;;6.72;6.32;;;2.10;99.90;;;;;;6124688;23;20856;-75
2023/01/17 08:33:34;;;;;;;6.85;6.35;;;2.20;99.90;;;;;;6150817;23;20425;-76
2023/01/17 08:36:01;;;;;;;6.72;6.22;;;2.30;99.90;;;;;;6123298;23;20448;-76
2023/01/17 08:38:28;;;;;;;6.97;6.47;;;2.30;99.90;;;;;;6150310;23;20377;-76
2023/01/17 08:40:58;;;;;;;6.70;6.28;;;2.40;99.90;;;;;;6123167;23;20402;-76
2023/01/17 08:43:25;;;;;;;7.30;6.80;;;2.50;99.90;;;;;;6125585;23;20369;-75
2023/01/17 08:45:54;;;;;;;6.18;5.78;;;2.50;99.90;;;;;;6123458;23;20379;-76
2023/01/17 08:48:22;;;;;;;6.07;5.68;;;2.50;99.90;;;;;;6148993;23;20413;-76
2023/01/17 08:50:49;;;;;;;6.45;6.05;;;2.50;99.90;;;;;;6124628;23;20482;-75
2023/01/17 08:53:21;;;;;;;6.35;5.95;;;2.60;99.90;;;;;;6123136;23;20401;-77
2023/01/17 08:55:57;;;;;;;6.78;6.30;;;2.70;99.90;;;;;;6124728;23;20370;-75
2023/01/17 08:58:23;;;;;;;7.03;6.53;;;2.70;99.90;;;;;;6149670;23;20366;-74
2023/01/17 09:00:50;;;;;;;7.05;6.55;;;2.70;99.90;;;;;;6126696;23;20374;-75
2023/01/17 09:03:17;;;;;;;6.65;6.15;;;2.70;99.90;;;;;;6125266;23;20449;-75
2023/01/17 09:05:44;;;;;;;6.07;5.68;;;2.70;99.90;;;;;;6127562;23;20370;-76
2023/01/17 09:08:11;;;;;;;5.63;5.32;;;2.70;99.90;;;;;;6126396;23;20684;-76
2023/01/17 09:10:38;;;;;;;6.30;5.90;;;2.80;99.90;;;;;;6127335;23;20460;-76
2023/01/17 09:13:05;;;;;;;6.18;5.78;;;2.80;99.90;;;;;;6125645;23;20424;-75
2023/01/17 09:15:32;;;;;;;6.78;6.28;;;2.80;99.90;;;;;;6126192;23;20366;-75
2023/01/17 09:18:00;;;;;;;7.10;6.65;;;2.80;99.90;;;;;;6124701;23;20424;-78
2023/01/17 09:20:29;;;;;;;6.57;6.18;;;2.80;99.90;;;;;;6148673;23;20370;-74
2023/01/17 09:22:56;;;;;;;6.65;6.20;;;2.70;99.90;;;;;;6151436;23;20412;-75
2023/01/17 09:25:23;;;;;;;6.05;5.65;;;2.70;99.90;;;;;;6125413;23;20382;-75
2023/01/17 09:27:50;;;;;;;6.57;6.18;;;2.80;99.90;;;;;;6151688;23;20473;-75
2023/01/17 09:30:17;;;;;;;6.80;6.30;;;2.80;99.90;;;;;;6125453;23;20382;-75
2023/01/17 09:32:50;;;;;;;6.43;6.03;;;2.90;99.90;;;;;;6126766;23;20453;-75
2023/01/17 09:35:18;;;;;;;6.25;5.85;;;3.00;99.90;;;;;;6148390;23;20919;-78
2023/01/17 09:37:48;;;;;;;6.10;5.70;;;3.10;99.90;;;;;;6125742;23;20400;-76
2023/01/17 09:40:21;;;;;;;5.60;5.22;;;3.10;99.90;;;;;;6124639;23;20770;-75
2023/01/17 09:42:56;;;;;;;5.15;4.85;;;3.20;99.90;;;;;;6125827;23;20382;-75
2023/01/17 09:45:26;;;;;;;5.30;5.00;;;3.30;99.90;;;;;;6151293;23;20382;-76
2023/01/17 09:47:54;;;;;;;5.43;5.10;;;3.30;99.90;;;;;;6126232;23;20461;-75
2023/01/17 09:50:30;;;;;;;6.00;5.60;;;3.40;99.90;;;;;;6124923;23;20425;-75
2023/01/17 09:53:05;;;;;;;5.43;5.13;;;3.50;99.90;;;;;;6122192;23;20386;-75
2023/01/17 09:55:55;;;;;;;5.38;5.07;;;3.60;99.90;;;;;;6123757;23;20441;-75
2023/01/17 09:58:51;;;;;;;5.68;5.38;;;3.70;99.90;;;;;;6150666;23;20453;-75
2023/01/17 10:01:44;;;;;;;5.35;5.05;;;3.70;99.90;;;;;;6147459;23;20397;-75
2023/01/17 10:04:33;;;;;;;6.53;6.03;;;3.90;99.90;;;;;;6114307;23;20957;-75
2023/01/17 10:07:21;;;;;;;5.38;5.07;;;3.90;99.90;;;;;;6125871;23;20462;-75
2023/01/17 10:10:17;;;;;;;5.82;5.43;;;4.00;99.90;;;;;;6150163;23;20370;-76
2023/01/17 10:13:10;;;;;;;5.43;5.13;;;4.10;99.90;;;;;;6107326;23;20457;-75
2023/01/17 10:15:47;;;;;;;5.50;5.20;;;4.20;99.90;;;;;;6150772;23;20417;-75
2023/01/17 10:18:41;;;;;;;5.38;5.07;;;4.40;99.90;;;;;;6126283;23;20392;-75
2023/01/17 10:21:39;;;;;;;4.63;4.32;;;4.50;99.90;;;;;;6149823;23;20754;-76
2023/01/17 10:24:18;;;;;;;4.15;3.95;;;4.70;99.90;;;;;;6125235;23;20432;-75
2023/01/17 10:26:49;;;;;;;4.05;3.85;;;4.80;99.90;;;;;;6124197;23;20370;-75
2023/01/17 10:29:18;;;;;;;4.03;3.83;;;5.00;99.90;;;;;;6152259;23;20389;-74
2023/01/17 10:32:00;;;;;;;4.20;4.00;;;5.10;99.90;;;;;;6151112;23;20381;-75
2023/01/17 10:34:39;;;;;;;3.70;3.50;;;5.30;99.90;;;;;;6124785;23;20410;-74
2023/01/17 10:37:26;;;;;;;3.67;3.47;;;5.40;99.90;;;;;;6124456;23;20404;-75
2023/01/17 10:39:58;;;;;;;3.75;3.55;;;5.50;99.90;;;;;;6124633;23;20386;-75
2023/01/17 10:42:45;;;;;;;3.50;3.30;;;5.60;99.90;;;;;;6126382;23;20378;-76
2023/01/17 10:45:19;;;;;;;3.70;3.50;;;5.70;99.90;;;;;;6125466;23;20409;-74
2023/01/17 10:47:57;;;;;;;3.15;3.00;;;5.80;99.90;;;;;;6126059;23;20377;-75
2023/01/17 10:50:26;;;;;;;3.00;2.90;;;5.80;99.90;;;;;;6124748;23;20374;-74
2023/01/17 10:53:14;;;;;;;2.78;2.67;;;5.60;97.50;;;;;;6124932;23;20790;-75
2023/01/17 10:55:52;;;;;;;3.00;2.90;;;5.20;98.90;;;;;;6123008;23;20425;-75
2023/01/17 10:58:19;;;;;;;3.67;3.47;;;5.10;99.90;;;;;;6122807;23;20691;-75
2023/01/17 11:01:01;;;;;;;3.38;3.20;;;5.20;99.90;;;;;;6123812;23;20760;-75
2023/01/17 11:03:29;;;;;;;3.50;3.30;;;5.20;99.90;;;;;;6121482;23;20378;-76
2023/01/17 11:06:21;;;;;;;3.03;2.92;;;5.10;99.90;;;;;;6124797;23;20383;-75
2023/01/17 11:08:56;;;;;;;3.22;3.13;;;5.30;99.90;;;;;;6124231;23;20707;-76
2023/01/17 11:11:32;;;;;;;3.08;2.97;;;5.20;99.90;;;;;;6122994;23;20466;-77
2023/01/17 11:14:03;;;;;;;3.60;3.40;;;5.20;99.90;;;;;;6124768;23;20374;-75
2023/01/17 11:16:31;;;;;;;3.58;3.38;;;5.20;99.90;;;;;;6124671;23;20374;-74
2023/01/17 11:19:23;;;;;;;3.92;3.72;;;5.30;99.90;;;;;;6125971;23;20428;-75
2023/01/17 11:21:57;;;;;;;4.00;3.80;;;5.30;99.90;;;;;;6123697;23;20458;-75
2023/01/17 11:24:31;;;;;;;4.30;4.10;;;5.30;99.90;;;;;;6125793;23;20402;-75
2023/01/17 11:26:58;;;;;;;3.78;3.58;;;5.10;99.90;;;;;;6148634;23;20821;-74
2023/01/17 11:29:38;;;;;;;4.22;4.03;;;5.00;99.90;;;;;;6125447;23;20706;-74
2023/01/17 11:32:26;;;;;;;3.80;3.60;;;5.00;99.90;;;;;;6122690;23;20453;-74
2023/01/17 11:35:16;;;;;;;3.65;3.45;;;5.20;99.90;;;;;;6149104;23;20384;-76
2023/01/17 11:37:56;;;;;;;3.80;3.60;;;5.30;99.90;;;;;;6123602;23;20374;-76
2023/01/17 11:41:18;;;;;;;3.85;3.65;;;5.30;99.90;;;;;;6125483;23;20401;-76
2023/01/17 11:43:49;;;;;;;3.92;3.72;;;5.20;99.90;;;;;;6148947;23;20374;-75
2023/01/17 11:46:17;;;;;;;3.70;3.50;;;5.20;99.90;;;;;;6124491;23;20429;-76
2023/01/17 11:48:51;;;;;;;3.72;3.53;;;5.40;99.90;;;;;;6149564;23;20702;-75
2023/01/17 11:51:31;;;;;;;3.23;3.13;;;5.40;99.90;;;;;;6149688;23;20827;-75
2023/01/17 11:54:24;;;;;;;3.67;3.47;;;5.40;99.90;;;;;;6124410;23;20385;-75
2023/01/17 11:57:00;;;;;;;3.72;3.53;;;5.40;99.90;;;;;;6123570;23;20378;-75
2023/01/17 11:59:34;;;;;;;3.27;3.17;;;5.30;99.90;;;;;;6122900;23;20688;-76
2023/01/17 12:02:20;;;;;;;3.53;3.33;;;5.30;99.90;;;;;;6119397;23;20704;-76
2023/01/17 12:05:14;;;;;;;3.85;3.65;;;5.30;99.90;;;;;;6118240;23;21265;-76
2023/01/17 12:08:05;;;;;;;3.53;3.33;;;5.20;99.90;;;;;;6116947;23;20452;-75
2023/01/17 12:10:43;;;;;;;3.55;3.40;;;5.20;99.90;;;;;;6119372;23;20368;-75
2023/01/17 12:14:01;;;;;;;3.57;3.37;;;5.30;99.90;;;;;;6121912;23;20828;-75
2023/01/17 12:16:30;;;;;;;3.10;3.00;;;5.40;99.90;;;;;;6120127;23;20371;-75
2023/01/17 12:19:17;;;;;;;2.80;2.70;;;5.40;99.90;;;;;;6122035;23;20379;-75
2023/01/17 12:22:04;;;;;;;2.42;2.33;;;5.50;99.90;;;;;;6119530;23;20363;-74
2023/01/17 12:24:44;;;;;;;2.70;2.60;;;5.60;99.90;;;;;;6119301;23;20439;-75
2023/01/17 12:27:33;;;;;;;2.33;2.22;;;5.60;99.90;;;;;;6120277;23;20402;-74
2023/01/17 12:30:33;;;;;;;2.22;2.13;;;5.80;99.30;;;;;;6121272;23;20430;-74
2023/01/17 12:33:12;;;;;;;2.33;2.22;;;5.80;98.20;;;;;;6119495;23;20398;-77
2023/01/17 12:35:56;;;;;;;2.30;2.20;;;5.90;97.20;;;;;;6120455;23;20371;-75
2023/01/17 12:38:38;;;;;;;2.15;2.05;;;6.00;97.60;;;;;;6121107;23;20708;-76
2023/01/17 12:41:32;;;;;;;2.10;2.00;;;6.20;97.50;;;;;;6121316;23;20383;-74
2023/01/17 12:44:00;;;;;;;2.00;1.90;;;6.30;96.40;;;;;;6121160;23;20388;-74
2023/01/17 12:46:37;;;;;;;2.28;2.17;;;6.30;95.50;;;;;;6122006;23;20380;-74
2023/01/17 12:49:48;;;;;;;1.95;1.85;;;6.40;94.30;;;;;;6121230;23;20750;-75
2023/01/17 12:52:46;;;;;;;1.80;1.70;;;6.30;93.20;;;;;;6107360;23;20463;-74
2023/01/17 12:55:19;;;;;;;1.75;1.65;;;6.30;94.10;;;;;;6104443;23;20376;-75
2023/01/17 12:57:53;;;;;;;1.77;1.67;;;6.30;93.50;;;;;;6122069;23;20400;-74
2023/01/17 13:00:24;;;;;;;1.80;1.70;;;6.40;93.40;;;;;;6121310;23;20384;-74
2023/01/17 13:03:23;;;;;;;1.70;1.60;;;6.40;92.90;;;;;;6143602;23;20420;-74
2023/01/17 13:05:51;;;;;;;1.40;1.40;;;6.20;91.40;;;;;;6152073;23;20370;-75
2023/01/17 13:08:37;;;;;;;1.60;1.50;;;6.20;92.90;;;;;;6127000;23;20909;-75
2023/01/17 13:11:10;;;;;;;1.77;1.67;;;6.30;93.50;;;;;;6152302;23;20410;-75
2023/01/17 13:13:40;;;;;;;1.58;1.58;;;6.30;93.00;;;;;;6126810;23;20382;-75
2023/01/17 13:16:41;;;;;;;2.10;2.00;;;6.40;93.60;;;;;;6125798;23;20856;-74
2023/01/17 13:19:26;;;;;;;2.28;2.17;;;6.30;92.90;;;;;;6111254;23;20475;-74
2023/01/17 13:21:54;;;;;;;2.58;2.47;;;6.10;92.60;;;;;;6126480;23;20366;-74
2023/01/17 13:25:19;;;;;;;1.83;1.73;;;5.80;94.40;;;;;;6126070;23;20375;-73
2023/01/17 13:28:08;;;;;;;1.63;1.60;;;5.90;94.60;;;;;;6004460;23;20409;-74
2023/01/17 13:30:49;;;;;;;2.25;2.15;;;5.70;95.70;;;;;;5967519;23;20394;-74
2023/01/17 13:33:25;;;;;;;2.75;2.65;;;5.60;97.20;;;;;;6106955;23;20452;-74
2023/01/17 13:36:12;;;;;;;1.80;1.70;;;5.50;97.70;;;;;;6125054;23;21160;-74
2023/01/17 13:38:58;;;;;;;2.03;1.92;;;5.70;98.10;;;;;;6125733;23;20405;-75
2023/01/17 13:41:49;;;;;;;2.28;2.17;;;5.50;96.90;;;;;;6152145;23;20421;-74
2023/01/17 13:44:26;;;;;;;2.10;2.00;;;5.50;98.20;;;;;;6126012;23;20428;-74
2023/01/17 13:47:06;;;;;;;2.17;2.08;;;5.70;98.60;;;;;;6149275;23;20382;-74
2023/01/17 13:49:39;;;;;;;2.67;2.58;;;5.70;98.30;;;;;;6150514;23;20400;-74
2023/01/17 13:52:18;;;;;;;3.30;3.10;;;5.70;98.20;;;;;;6125395;23;20478;-74
2023/01/17 13:54:48;;;;;;;2.77;2.60;;;5.60;98.40;;;;;;6126343;23;20370;-75
2023/01/17 13:57:28;;;;;;;2.58;2.47;;;5.40;99.40;;;;;;6125471;23;20366;-74
2023/01/17 14:00:09;;;;;;;2.90;2.80;;;5.30;99.90;;;;;;6125447;23;20389;-74
2023/01/17 14:02:37;;;;;;;3.20;3.10;;;5.30;99.90;;;;;;6121294;23;20375;-74
2023/01/17 14:05:07;;;;;;;3.37;3.23;;;5.20;99.90;;;;;;6119579;23;20904;-74
2023/01/17 14:07:53;;;;;;;3.30;3.17;;;5.00;99.90;;;;;;6120892;23;20430;-75
2023/01/17 14:10:33;;;;;;;4.00;3.80;;;4.80;99.90;;;;;;6145075;23;20371;-74
2023/01/17 14:13:00;;;;;;;3.88;3.67;;;4.80;99.90;;;;;;6120050;23;20471;-74
2023/01/17 14:15:31;;;;;;;3.78;3.58;;;4.90;99.90;;;;;;6121419;23;20439;-74
2023/01/17 14:18:02;;;;;;;3.70;3.50;;;4.90;99.90;;;;;;6120401;23;20403;-75
2023/01/17 14:20:42;;;;;;;3.50;3.30;;;4.80;99.90;;;;;;6121541;23;20708;-74
2023/01/17 14:23:31;;;;;;;3.50;3.30;;;4.80;99.90;;;;;;6120442;23;20379;-74
2023/01/17 14:26:12;;;;;;;3.20;3.10;;;4.70;99.90;;;;;;6116961;23;20403;-77
2023/01/17 14:28:39;;;;;;;3.67;3.47;;;4.70;99.90;;;;;;6120977;23;20411;-74
2023/01/17 14:31:09;;;;;;;3.00;2.90;;;4.70;99.90;;;;;;6119202;23;20772;-75
2023/01/17 14:33:39;;;;;;;3.00;2.90;;;4.80;99.90;;;;;;6121478;23;20722;-74
2023/01/17 14:36:20;;;;;;;2.85;2.75;;;4.80;99.90;;;;;;6120248;23;20436;-74
2023/01/17 14:38:47;;;;;;;2.90;2.80;;;4.80;99.90;;;;;;6117747;23;20387;-75
2023/01/17 14:41:24;;;;;;;3.67;3.47;;;4.70;99.90;;;;;;6120627;23;20419;-74
2023/01/17 14:43:52;;;;;;;3.25;3.05;;;4.80;99.90;;;;;;6121438;23;20376;-73
2023/01/17 14:46:28;;;;;;;2.83;2.72;;;4.70;99.90;;;;;;6118795;23;20384;-75
2023/01/17 14:49:00;;;;;;;3.08;2.97;;;4.70;99.90;;;;;;6120880;23;20379;-74
2023/01/17 14:51:28;;;;;;;2.90;2.80;;;4.70;99.90;;;;;;6120392;23;21283;-76
2023/01/17 14:53:57;;;;;;;3.20;3.00;;;4.60;99.90;;;;;;6120460;23;20862;-74
2023/01/17 14:56:26;;;;;;;2.70;2.60;;;4.60;99.90;;;;;;6120601;23;20399;-73
2023/01/17 14:59:03;;;;;;;2.72;2.63;;;4.60;99.90;;;;;;6121277;23;20415;-75
2023/01/17 15:01:31;;;;;;;2.70;2.60;;;4.60;99.90;;;;;;6124769;23;20376;-74
2023/01/17 15:03:59;;;;;;;3.30;3.15;;;4.70;99.90;;;;;;6124401;23;20724;-74
2023/01/17 15:06:39;;;;;;;3.33;3.20;;;4.70;99.90;;;;;;6150474;23;22537;-74
2023/01/17 15:09:24;;;;;;;2.50;2.40;;;4.60;99.90;;;;;;6124803;23;20785;-75
2023/01/17 15:11:53;;;;;;;2.67;2.58;;;4.60;99.90;;;;;;6125496;23;20370;-74
2023/01/17 15:14:32;;;;;;;2.53;2.42;;;4.60;99.90;;;;;;6150585;23;20386;-74
2023/01/17 15:17:16;;;;;;;2.70;2.50;;;4.60;99.90;;;;;;6126134;23;20406;-75
2023/01/17 15:19:47;;;;;;;2.70;2.60;;;4.60;99.90;;;;;;6124815;23;20405;-74
2023/01/17 15:22:15;;;;;;;2.38;2.28;;;4.60;99.90;;;;;;6126066;23;20382;-74
2023/01/17 15:24:43;;;;;;;2.40;2.30;;;4.60;99.90;;;;;;6124089;23;20363;-74
2023/01/17 15:27:15;;;;;;;2.58;2.47;;;4.70;99.90;;;;;;6122870;23;20374;-75
2023/01/17 15:29:44;;;;;;;2.60;2.50;;;4.70;99.90;;;;;;6124133;23;20430;-74
2023/01/17 15:32:23;;;;;;;2.15;2.05;;;4.70;99.90;;;;;;6126008;23;20750;-74
2023/01/17 15:34:51;;;;;;;2.67;2.58;;;4.80;99.90;;;;;;6123954;23;20408;-75
2023/01/17 15:37:33;;;;;;;2.40;2.30;;;4.70;99.90;;;;;;6125307;23;20378;-76
2023/01/17 15:40:15;;;;;;;2.40;2.30;;;4.70;99.90;;;;;;6150449;23;20850;-74
2023/01/17 15:42:45;;;;;;;2.40;2.30;;;4.70;99.90;;;;;;6122647;23;20373;-74
2023/01/17 15:45:18;;;;;;;2.50;2.40;;;4.70;99.90;;;;;;6123899;23;20676;-75
2023/01/17 15:47:46;;;;;;;2.60;2.50;;;4.60;99.90;;;;;;6123721;23;20378;-74
2023/01/17 15:50:26;;;;;;;2.35;2.25;;;4.60;99.90;;;;;;6124390;23;20462;-74
2023/01/17 15:52:56;;;;;;;3.15;2.95;;;4.60;99.90;;;;;;6124123;23;20392;-74
2023/01/17 15:55:34;;;;;;;3.85;3.65;;;4.50;99.90;;;;;;6123672;23;20861;-74
2023/01/17 15:58:02;;;;;;;3.50;3.30;;;4.50;99.90;;;;;;6150017;23;20372;-75
2023/01/17 16:00:37;;;;;;;3.83;3.63;;;4.30;99.90;;;;;;6124343;23;20413;-75
2023/01/17 16:03:28;;;;;;;3.67;3.47;;;4.30;99.90;;;;;;6123691;23;20450;-76
2023/01/17 16:05:58;;;;;;;3.25;3.10;;;4.20;99.90;;;;;;6148289;23;20457;-75
2023/01/17 16:08:28;;;;;;;2.95;2.85;;;4.10;99.90;;;;;;6125115;23;20417;-74
2023/01/17 16:11:01;;;;;;;3.00;2.85;;;4.10;99.90;;;;;;6123732;23;20752;-74
2023/01/17 16:13:30;;;;;;;2.70;2.60;;;4.10;99.90;;;;;;6123726;23;20381;-75
2023/01/17 16:16:11;;;;;;;2.90;2.80;;;4.10;99.90;;;;;;6124012;23;20378;-74
2023/01/17 16:18:39;;;;;;;2.60;2.50;;;4.10;99.90;;;;;;6125650;23;20389;-74
2023/01/17 16:21:27;;;;;;;2.60;2.50;;;4.10;99.90;;;;;;6149517;23;20409;-74
2023/01/17 16:23:55;;;;;;;2.80;2.70;;;4.20;99.90;;;;;;6117611;23;20907;-75
2023/01/17 16:26:23;;;;;;;2.88;2.78;;;4.20;99.90;;;;;;6124709;23;20372;-74
2023/01/17 16:28:50;;;;;;;2.58;2.47;;;4.20;99.90;;;;;;6149373;23;20401;-74